createdAt,value
2017-09-20T00:00:50.840Z,12
2017-09-20T00:02:04.754Z,12.05
2017-09-20T00:03:18.924Z,12.08
2017-09-20T00:04:34.560Z,11.89
2017-09-20T00:05:50.359Z,11.78
2017-09-20T00:07:05.829Z,11.85
2017-09-20T00:08:21.119Z,11.86
2017-09-20T00:09:35.323Z,11.73
2017-09-20T00:10:50.157Z,11.83
2017-09-20T00:12:06.606Z,11.86
2017-09-20T00:13:20.839Z,11.73
2017-09-20T00:14:35.378Z,11.74
2017-09-20T00:15:50.005Z,11.85
2017-09-20T00:17:06.193Z,11.67
2017-09-20T00:18:22.270Z,11.7
2017-09-20T00:19:38.513Z,11.77
2017-09-20T00:20:53.326Z,11.71
2017-09-20T00:22:06.953Z,11.8
2017-09-20T00:23:20.782Z,11.76
2017-09-20T00:24:34.323Z,11.73
2017-09-20T00:25:50.122Z,11.77
2017-09-20T00:27:04.770Z,11.81
2017-09-20T00:28:18.493Z,11.74
2017-09-20T00:29:32.342Z,11.86
2017-09-20T00:30:45.855Z,11.77
2017-09-20T00:31:59.495Z,11.49
2017-09-20T00:33:13.345Z,11.51
2017-09-20T00:34:27.183Z,11.53
2017-09-20T00:35:41.380Z,11.49
2017-09-20T00:36:54.873Z,11.49
2017-09-20T00:38:08.380Z,11.44
2017-09-20T00:39:22.004Z,11.43
2017-09-20T00:40:35.763Z,11.44
2017-09-20T00:41:50.361Z,11.33
2017-09-20T00:43:03.889Z,11.31
2017-09-20T00:44:17.365Z,11.3
2017-09-20T00:45:31.580Z,11.23
2017-09-20T00:46:46.146Z,11.26
2017-09-20T00:47:59.963Z,11.19
2017-09-20T00:49:13.489Z,11.25
2017-09-20T00:50:27.894Z,11.18
2017-09-20T00:51:42.018Z,11.18
2017-09-20T00:52:55.847Z,11.05
2017-09-20T00:54:09.960Z,11.01
2017-09-20T00:55:23.646Z,10.98
2017-09-20T00:56:37.823Z,10.89
2017-09-20T00:57:51.725Z,10.94
2017-09-20T00:59:05.255Z,10.89
2017-09-20T01:00:19.098Z,10.94
2017-09-20T01:01:33.128Z,10.71
2017-09-20T01:02:47.612Z,10.77
2017-09-20T01:04:01.719Z,10.76
2017-09-20T01:05:15.648Z,10.65
2017-09-20T01:06:29.430Z,10.65
2017-09-20T01:07:43.204Z,10.71
2017-09-20T01:08:56.780Z,10.71
2017-09-20T01:10:10.275Z,10.69
2017-09-20T01:11:23.769Z,10.75
2017-09-20T01:12:37.624Z,10.68
2017-09-20T01:13:51.121Z,10.59
2017-09-20T01:15:04.832Z,10.61
2017-09-20T01:16:18.354Z,10.61
2017-09-20T01:17:32.310Z,10.59
2017-09-20T01:18:46.117Z,10.57
2017-09-20T01:19:59.587Z,10.55
2017-09-20T01:21:13.736Z,10.49
2017-09-20T01:22:27.671Z,10.48
2017-09-20T01:23:41.189Z,10.46
2017-09-20T01:24:55.107Z,10.42
2017-09-20T01:26:08.594Z,10.34
2017-09-20T01:27:22.077Z,10.38
2017-09-20T01:28:35.577Z,10.45
2017-09-20T01:29:49.239Z,10.33
2017-09-20T01:31:03.066Z,10.39
2017-09-20T01:32:16.903Z,10.42
2017-09-20T01:33:30.404Z,10.42
2017-09-20T01:34:44.589Z,10.39
2017-09-20T01:35:58.171Z,10.48
2017-09-20T01:37:12.076Z,10.38
2017-09-20T01:38:25.578Z,10.36
2017-09-20T01:39:39.074Z,10.36
2017-09-20T01:40:52.638Z,10.43
2017-09-20T01:42:06.211Z,10.46
2017-09-20T01:43:20.100Z,10.42
2017-09-20T01:44:33.986Z,10.43
2017-09-20T01:45:47.575Z,10.41
2017-09-20T01:47:01.061Z,10.41
2017-09-20T01:48:14.578Z,10.39
2017-09-20T01:49:28.810Z,10.34
2017-09-20T01:50:42.295Z,10.36
2017-09-20T01:51:55.922Z,10.27
2017-09-20T01:53:09.410Z,10.25
2017-09-20T01:54:22.933Z,10.25
2017-09-20T01:55:36.718Z,10.21
2017-09-20T01:56:50.241Z,10.23
2017-09-20T01:58:03.790Z,10.13
2017-09-20T01:59:17.294Z,10.03
2017-09-20T02:00:30.797Z,10.12
2017-09-20T02:01:44.655Z,10.02
2017-09-20T02:02:58.477Z,10.02
2017-09-20T02:04:12.035Z,10.07
2017-09-20T02:05:25.521Z,10.02
2017-09-20T02:06:39.092Z,10.05
2017-09-20T02:07:53.459Z,9.97
2017-09-20T02:09:06.942Z,10.05
2017-09-20T02:10:20.466Z,10.07
2017-09-20T02:11:33.961Z,10.03
2017-09-20T02:12:47.462Z,9.99
2017-09-20T02:14:01.304Z,10
2017-09-20T02:15:15.520Z,9.91
2017-09-20T02:16:29.325Z,9.94
2017-09-20T02:17:42.869Z,9.92
2017-09-20T02:18:56.772Z,9.9
2017-09-20T02:20:10.564Z,9.85
2017-09-20T02:21:24.105Z,9.92
2017-09-20T02:22:37.774Z,9.85
2017-09-20T02:23:51.286Z,9.94
2017-09-20T02:25:04.797Z,9.91
2017-09-20T02:26:18.586Z,9.92
2017-09-20T02:27:32.076Z,10
2017-09-20T02:28:46.056Z,9.99
2017-09-20T02:29:59.597Z,9.91
2017-09-20T02:31:13.615Z,9.95
2017-09-20T02:32:27.399Z,9.92
2017-09-20T02:33:40.899Z,9.9
2017-09-20T02:34:54.793Z,9.87
2017-09-20T02:36:08.597Z,9.82
2017-09-20T02:37:22.231Z,9.84
2017-09-20T02:38:36.043Z,9.87
2017-09-20T02:39:49.536Z,9.81
2017-09-20T02:41:03.111Z,9.82
2017-09-20T02:42:17.137Z,9.77
2017-09-20T02:43:30.690Z,9.74
2017-09-20T02:44:44.504Z,9.73
2017-09-20T02:45:57.993Z,9.67
2017-09-20T02:47:11.695Z,9.66
2017-09-20T02:48:25.562Z,9.8
2017-09-20T02:49:39.068Z,9.76
2017-09-20T02:50:52.911Z,9.76
2017-09-20T02:52:06.396Z,9.8
2017-09-20T02:53:20.058Z,9.76
2017-09-20T02:54:34.132Z,9.8
2017-09-20T02:55:48.679Z,9.66
2017-09-20T02:57:02.553Z,9.64
2017-09-20T02:58:29.087Z,9.64
2017-09-20T02:59:42.979Z,9.67
2017-09-20T03:00:56.654Z,9.76
2017-09-20T03:02:10.174Z,9.74
2017-09-20T03:03:23.991Z,9.69
2017-09-20T03:04:37.499Z,9.62
2017-09-20T03:05:51.076Z,9.55
2017-09-20T03:07:04.612Z,9.48
2017-09-20T03:08:18.152Z,9.54
2017-09-20T03:09:32.356Z,9.49
2017-09-20T03:10:46.399Z,9.44
2017-09-20T03:11:59.913Z,9.39
2017-09-20T03:13:17.844Z,9.39
2017-09-20T03:14:35.851Z,9.31
2017-09-20T03:15:49.804Z,9.39
2017-09-20T03:17:03.343Z,9.31
2017-09-20T03:18:16.935Z,9.3
2017-09-20T03:19:30.460Z,9.33
2017-09-20T03:20:44.057Z,9.34
2017-09-20T03:21:57.945Z,9.33
2017-09-20T03:23:11.515Z,9.37
2017-09-20T03:24:26.227Z,9.36
2017-09-20T03:25:40.360Z,9.36
2017-09-20T03:26:54.242Z,9.36
2017-09-20T03:28:09.066Z,9.33
2017-09-20T03:29:22.948Z,9.31
2017-09-20T03:30:37.881Z,9.31
2017-09-20T03:31:52.608Z,9.37
2017-09-20T03:33:07.793Z,9.37
2017-09-20T03:34:22.289Z,9.37
2017-09-20T03:35:36.762Z,9.36
2017-09-20T03:36:50.775Z,9.42
2017-09-20T03:38:04.624Z,9.44
2017-09-20T03:39:18.127Z,9.34
2017-09-20T03:40:31.986Z,9.31
2017-09-20T03:41:46.464Z,9.37
2017-09-20T03:42:59.957Z,9.34
2017-09-20T03:44:13.473Z,9.33
2017-09-20T03:45:26.968Z,9.29
2017-09-20T03:46:40.748Z,9.24
2017-09-20T03:47:54.241Z,9.24
2017-09-20T03:49:07.964Z,9.26
2017-09-20T03:50:21.593Z,9.19
2017-09-20T03:51:35.065Z,9.22
2017-09-20T03:52:48.889Z,9.21
2017-09-20T03:54:02.382Z,9.29
2017-09-20T03:55:16.246Z,9.36
2017-09-20T03:56:29.743Z,9.33
2017-09-20T03:57:43.342Z,9.48
2017-09-20T03:58:57.129Z,9.49
2017-09-20T04:00:10.663Z,9.54
2017-09-20T04:01:24.312Z,9.59
2017-09-20T04:02:38.181Z,9.64
2017-09-20T04:03:51.930Z,9.76
2017-09-20T04:05:05.743Z,9.76
2017-09-20T04:06:19.861Z,9.8
2017-09-20T04:07:33.347Z,9.85
2017-09-20T04:08:46.877Z,9.97
2017-09-20T04:10:00.629Z,9.99
2017-09-20T04:11:14.540Z,9.95
2017-09-20T04:12:28.383Z,9.94
2017-09-20T04:13:42.202Z,9.97
2017-09-20T04:14:55.732Z,9.94
2017-09-20T04:16:09.330Z,9.97
2017-09-20T04:17:23.632Z,10.1
2017-09-20T04:18:37.157Z,10.06
2017-09-20T04:19:50.694Z,9.99
2017-09-20T04:21:04.197Z,10.09
2017-09-20T04:22:17.896Z,10.03
2017-09-20T04:23:31.894Z,10.12
2017-09-20T04:24:46.411Z,10.02
2017-09-20T04:25:59.939Z,10.05
2017-09-20T04:27:13.794Z,10.1
2017-09-20T04:28:27.296Z,10.1
2017-09-20T04:29:41.778Z,10.06
2017-09-20T04:30:55.700Z,10.13
2017-09-20T04:32:09.297Z,10.09
2017-09-20T04:33:22.800Z,10.06
2017-09-20T04:34:36.307Z,10.03
2017-09-20T04:35:50.135Z,10.2
2017-09-20T04:37:03.637Z,10.1
2017-09-20T04:38:17.130Z,10.15
2017-09-20T04:39:30.613Z,10.17
2017-09-20T04:40:44.102Z,10.1
2017-09-20T04:41:58.424Z,10.09
2017-09-20T04:43:12.298Z,10.15
2017-09-20T04:44:25.814Z,10.18
2017-09-20T04:45:39.504Z,10.27
2017-09-20T04:46:53.014Z,10.25
2017-09-20T04:48:06.853Z,10.15
2017-09-20T04:49:20.988Z,10.2
2017-09-20T04:50:35.009Z,10.12
2017-09-20T04:51:48.512Z,10.17
2017-09-20T04:53:02.203Z,10.15
2017-09-20T04:54:15.985Z,10.06
2017-09-20T04:55:29.497Z,10.07
2017-09-20T04:56:43.267Z,10.06
2017-09-20T04:57:56.990Z,10.09
2017-09-20T04:59:10.505Z,10.2
2017-09-20T05:00:24.315Z,10.27
2017-09-20T05:01:37.798Z,10.23
2017-09-20T05:02:52.303Z,10.28
2017-09-20T05:04:05.871Z,10.21
2017-09-20T05:05:20.061Z,10.27
2017-09-20T05:06:33.931Z,10.2
2017-09-20T05:07:47.424Z,10.24
2017-09-20T05:09:01.594Z,10.25
2017-09-20T05:10:15.298Z,10.24
2017-09-20T05:11:28.785Z,10.25
2017-09-20T05:12:42.594Z,10.31
2017-09-20T05:13:56.127Z,10.25
2017-09-20T05:15:09.836Z,10.23
2017-09-20T05:16:23.344Z,10.3
2017-09-20T05:17:37.437Z,10.25
2017-09-20T05:18:51.274Z,10.31
2017-09-20T05:20:04.773Z,10.27
2017-09-20T05:21:18.379Z,10.27
2017-09-20T05:22:32.723Z,10.31
2017-09-20T05:23:46.474Z,10.34
2017-09-20T05:25:00.387Z,10.36
2017-09-20T05:26:13.878Z,10.45
2017-09-20T05:27:27.464Z,10.39
2017-09-20T05:28:40.963Z,10.38
2017-09-20T05:29:54.624Z,10.36
2017-09-20T05:31:08.433Z,10.46
2017-09-20T05:32:21.948Z,10.53
2017-09-20T05:33:36.020Z,10.49
2017-09-20T05:34:50.259Z,10.51
2017-09-20T05:36:03.940Z,10.55
2017-09-20T05:37:18.148Z,10.46
2017-09-20T05:38:31.781Z,10.45
2017-09-20T05:39:46.771Z,10.51
2017-09-20T05:41:00.827Z,10.55
2017-09-20T05:42:14.813Z,10.58
2017-09-20T05:43:37.115Z,10.59
2017-09-20T05:44:50.832Z,10.59
2017-09-20T05:46:04.706Z,10.59
2017-09-20T05:47:18.244Z,10.59
2017-09-20T05:48:32.113Z,10.62
2017-09-20T05:49:46.434Z,10.71
2017-09-20T05:50:59.906Z,10.71
2017-09-20T05:52:13.467Z,10.68
2017-09-20T05:53:27.192Z,10.64
2017-09-20T05:54:40.702Z,10.65
2017-09-20T05:55:54.827Z,10.67
2017-09-20T05:57:08.359Z,10.72
2017-09-20T05:58:22.238Z,10.77
2017-09-20T05:59:35.714Z,10.86
2017-09-20T06:00:49.302Z,10.98
2017-09-20T06:02:03.214Z,10.89
2017-09-20T06:03:16.909Z,10.94
2017-09-20T06:04:31.392Z,11
2017-09-20T06:05:44.914Z,11
2017-09-20T06:06:58.504Z,11.04
2017-09-20T06:08:12.369Z,11.07
2017-09-20T06:09:26.272Z,11.04
2017-09-20T06:10:39.788Z,11.13
2017-09-20T06:11:53.367Z,11.05
2017-09-20T06:13:06.931Z,11.16
2017-09-20T06:14:21.053Z,11.1
2017-09-20T06:15:34.568Z,11.22
2017-09-20T06:16:48.076Z,11.22
2017-09-20T06:18:01.759Z,11.27
2017-09-20T06:19:15.310Z,11.26
2017-09-20T06:20:29.159Z,11.26
2017-09-20T06:21:42.719Z,11.27
2017-09-20T06:22:56.442Z,11.3
2017-09-20T06:24:09.928Z,11.27
2017-09-20T06:25:23.944Z,11.33
2017-09-20T06:26:38.581Z,11.35
2017-09-20T06:27:52.136Z,11.38
2017-09-20T06:29:05.865Z,11.33
2017-09-20T06:30:19.686Z,11.49
2017-09-20T06:31:33.283Z,11.48
2017-09-20T06:32:47.153Z,11.41
2017-09-20T06:34:00.689Z,11.53
2017-09-20T06:35:14.440Z,11.48
2017-09-20T06:36:27.958Z,11.49
2017-09-20T06:37:41.914Z,11.45
2017-09-20T06:38:55.788Z,11.55
2017-09-20T06:40:09.403Z,11.45
2017-09-20T06:41:23.011Z,11.4
2017-09-20T06:42:36.630Z,11.53
2017-09-20T06:43:50.795Z,11.56
2017-09-20T06:45:04.704Z,11.55
2017-09-20T06:46:18.246Z,11.62
2017-09-20T06:47:32.833Z,11.56
2017-09-20T06:48:46.445Z,11.7
2017-09-20T06:50:00.729Z,11.65
2017-09-20T06:51:14.824Z,11.91
2017-09-20T06:52:28.697Z,11.86
2017-09-20T06:53:42.826Z,11.97
2017-09-20T06:54:56.388Z,12.02
2017-09-20T06:56:09.985Z,12
2017-09-20T06:57:23.984Z,12.11
2017-09-20T06:58:37.525Z,12.3
2017-09-20T06:59:51.275Z,12.4
2017-09-20T07:01:05.123Z,12.58
2017-09-20T07:02:18.649Z,12.68
2017-09-20T07:03:32.467Z,12.69
2017-09-20T07:04:46.472Z,12.9
2017-09-20T07:06:00.344Z,12.98
2017-09-20T07:07:13.897Z,12.95
2017-09-20T07:08:27.508Z,12.91
2017-09-20T07:09:42.085Z,12.95
2017-09-20T07:10:55.618Z,13.08
2017-09-20T07:12:09.616Z,13.06
2017-09-20T07:13:23.643Z,13.03
2017-09-20T07:14:37.761Z,13.17
2017-09-20T07:15:51.613Z,13.17
2017-09-20T07:17:05.565Z,13.19
2017-09-20T07:18:19.988Z,13.21
2017-09-20T07:19:33.867Z,13.39
2017-09-20T07:20:47.792Z,13.52
2017-09-20T07:22:01.425Z,13.62
2017-09-20T07:23:14.952Z,13.55
2017-09-20T07:24:28.797Z,13.62
2017-09-20T07:25:42.544Z,13.55
2017-09-20T07:26:56.184Z,13.37
2017-09-20T07:28:10.442Z,13.19
2017-09-20T07:29:24.375Z,13.2
2017-09-20T07:30:38.377Z,13.17
2017-09-20T07:31:52.941Z,13.2
2017-09-20T07:33:06.691Z,13.2
2017-09-20T07:34:20.698Z,13.2
2017-09-20T07:35:35.156Z,13.31
2017-09-20T07:36:49.601Z,13.23
2017-09-20T07:38:03.899Z,13.23
2017-09-20T07:39:17.631Z,13.21
2017-09-20T07:40:31.811Z,13.39
2017-09-20T07:41:45.434Z,13.4
2017-09-20T07:42:59.062Z,13.49
2017-09-20T07:44:12.580Z,13.54
2017-09-20T07:45:26.144Z,13.67
2017-09-20T07:46:40.389Z,13.64
2017-09-20T07:47:54.257Z,13.75
2017-09-20T07:49:07.866Z,13.76
2017-09-20T07:50:21.386Z,13.82
2017-09-20T07:51:35.220Z,13.75
2017-09-20T07:52:49.040Z,13.78
2017-09-20T07:54:02.829Z,13.86
2017-09-20T07:55:16.528Z,13.83
2017-09-20T07:56:30.048Z,13.82
2017-09-20T07:57:43.609Z,13.8
2017-09-20T07:58:57.543Z,13.93
2017-09-20T08:00:11.119Z,13.95
2017-09-20T08:01:24.835Z,14.04
2017-09-20T08:02:38.479Z,14.08
2017-09-20T08:03:51.995Z,14.07
2017-09-20T08:05:06.345Z,14.04
2017-09-20T08:06:20.717Z,14.07
2017-09-20T08:07:35.175Z,14.15
2017-09-20T08:09:07.942Z,14.33
2017-09-20T08:10:21.776Z,14.43
2017-09-20T08:11:35.297Z,14.4
2017-09-20T08:12:49.827Z,14.49
2017-09-20T08:14:03.397Z,14.3
2017-09-20T08:15:17.402Z,14.36
2017-09-20T08:16:31.227Z,14.28
2017-09-20T08:17:44.937Z,14.26
2017-09-20T08:18:58.785Z,14.08
2017-09-20T08:20:12.324Z,14
2017-09-20T08:21:26.142Z,13.93
2017-09-20T08:22:39.921Z,14.05
2017-09-20T08:23:53.440Z,13.94
2017-09-20T08:25:07.024Z,13.94
2017-09-20T08:26:21.291Z,13.95
2017-09-20T08:27:35.148Z,14
2017-09-20T08:28:49.647Z,14.08
2017-09-20T08:30:03.444Z,14.04
2017-09-20T08:31:16.944Z,14.13
2017-09-20T08:32:30.666Z,14.15
2017-09-20T08:33:44.241Z,14.16
2017-09-20T08:34:58.068Z,14.18
2017-09-20T08:36:11.625Z,14.23
2017-09-20T08:37:25.876Z,14.19
2017-09-20T08:38:39.484Z,14.12
2017-09-20T08:39:53.323Z,14.26
2017-09-20T08:41:06.946Z,14.37
2017-09-20T08:42:20.892Z,14.33
2017-09-20T08:43:34.909Z,14.33
2017-09-20T08:44:48.415Z,14.4
2017-09-20T08:46:02.042Z,14.41
2017-09-20T08:47:15.941Z,14.52
2017-09-20T08:48:29.489Z,14.62
2017-09-20T08:49:43.040Z,14.55
2017-09-20T08:50:56.598Z,14.45
2017-09-20T08:52:10.335Z,14.37
2017-09-20T08:53:24.598Z,14.36
2017-09-20T08:54:38.443Z,14.53
2017-09-20T08:55:51.956Z,14.44
2017-09-20T08:57:05.488Z,14.43
2017-09-20T08:58:19.146Z,14.53
2017-09-20T08:59:33.096Z,14.45
2017-09-20T09:00:46.666Z,14.38
2017-09-20T09:02:00.209Z,14.4
2017-09-20T09:03:13.746Z,14.41
2017-09-20T09:04:27.358Z,14.44
2017-09-20T09:05:41.192Z,14.53
2017-09-20T09:06:54.739Z,14.51
2017-09-20T09:08:08.326Z,14.62
2017-09-20T09:09:21.885Z,14.77
2017-09-20T09:10:54.648Z,14.89
2017-09-20T09:12:08.453Z,14.81
2017-09-20T09:13:22.665Z,14.92
2017-09-20T09:14:36.408Z,14.99
2017-09-20T09:15:49.927Z,14.96
2017-09-20T09:17:03.499Z,14.92
2017-09-20T09:18:17.279Z,14.97
2017-09-20T09:19:30.813Z,14.97
2017-09-20T09:20:44.388Z,15.02
2017-09-20T09:21:58.758Z,15.04
2017-09-20T09:23:12.325Z,15.11
2017-09-20T09:24:26.532Z,15.11
2017-09-20T09:25:40.101Z,15.27
2017-09-20T09:26:53.839Z,15.44
2017-09-20T09:28:07.373Z,15.6
2017-09-20T09:29:21.120Z,15.65
2017-09-20T09:30:34.988Z,15.62
2017-09-20T09:31:48.476Z,15.78
2017-09-20T09:33:02.325Z,15.84
2017-09-20T09:34:16.230Z,15.88
2017-09-20T09:35:30.246Z,15.85
2017-09-20T09:36:44.099Z,15.83
2017-09-20T09:37:57.657Z,15.85
2017-09-20T09:39:11.183Z,15.87
2017-09-20T09:40:24.878Z,15.85
2017-09-20T09:41:39.433Z,15.84
2017-09-20T09:42:53.663Z,15.88
2017-09-20T09:44:07.734Z,15.81
2017-09-20T09:45:21.719Z,15.67
2017-09-20T09:46:35.253Z,15.65
2017-09-20T09:47:49.290Z,15.67
2017-09-20T09:49:03.497Z,15.67
2017-09-20T09:50:17.104Z,15.65
2017-09-20T09:51:31.285Z,15.78
2017-09-20T09:52:44.867Z,15.84
2017-09-20T09:53:58.491Z,15.83
2017-09-20T09:55:12.584Z,15.83
2017-09-20T09:56:26.155Z,15.92
2017-09-20T09:57:39.742Z,16.18
2017-09-20T09:58:53.277Z,16.37
2017-09-20T10:00:07.155Z,16.5
2017-09-20T10:01:21.315Z,16.72
2017-09-20T10:02:34.872Z,16.83
2017-09-20T10:03:48.386Z,16.8
2017-09-20T10:05:02.184Z,16.95
2017-09-20T10:06:16.665Z,17.14
2017-09-20T10:07:30.412Z,17.42
2017-09-20T10:08:43.946Z,17.59
2017-09-20T10:09:57.639Z,17.69
2017-09-20T10:11:11.832Z,17.71
2017-09-20T10:12:25.697Z,17.59
2017-09-20T10:13:39.864Z,17.56
2017-09-20T10:14:53.435Z,17.68
2017-09-20T10:16:07.263Z,17.65
2017-09-20T10:17:20.794Z,17.78
2017-09-20T10:18:34.629Z,17.8
2017-09-20T10:19:48.541Z,17.82
2017-09-20T10:21:02.076Z,17.8
2017-09-20T10:22:16.136Z,17.42
2017-09-20T10:23:29.722Z,17.42
2017-09-20T10:25:02.678Z,17.19
2017-09-20T10:26:16.269Z,17.17
2017-09-20T10:27:30.138Z,17.35
2017-09-20T10:28:44.021Z,17.35
2017-09-20T10:29:58.165Z,17.12
2017-09-20T10:31:12.217Z,16.98
2017-09-20T10:32:26.581Z,16.94
2017-09-20T10:33:40.404Z,17.01
2017-09-20T10:34:53.950Z,16.86
2017-09-20T10:36:07.656Z,16.98
2017-09-20T10:37:21.539Z,16.84
2017-09-20T10:38:36.052Z,16.94
2017-09-20T10:39:49.632Z,16.89
2017-09-20T10:41:03.418Z,16.89
2017-09-20T10:42:17.952Z,17.17
2017-09-20T10:43:32.171Z,16.94
2017-09-20T10:44:46.461Z,17.04
2017-09-20T10:46:00.174Z,17.12
2017-09-20T10:47:14.107Z,17.04
2017-09-20T10:48:27.736Z,17.07
2017-09-20T10:49:41.302Z,17.1
2017-09-20T10:50:55.467Z,17.01
2017-09-20T10:52:08.997Z,17.05
2017-09-20T10:53:22.986Z,17.04
2017-09-20T10:54:37.354Z,17.01
2017-09-20T10:55:51.803Z,17.05
2017-09-20T10:57:06.323Z,17.09
2017-09-20T10:58:19.951Z,17.13
2017-09-20T10:59:33.827Z,16.99
2017-09-20T11:00:47.384Z,17.12
2017-09-20T11:02:00.933Z,16.91
2017-09-20T11:03:15.124Z,16.87
2017-09-20T11:04:28.763Z,16.83
2017-09-20T11:05:42.787Z,16.95
2017-09-20T11:06:56.716Z,16.87
2017-09-20T11:08:10.415Z,16.94
2017-09-20T11:09:24.458Z,16.87
2017-09-20T11:10:38.506Z,17.02
2017-09-20T11:11:52.184Z,17.13
2017-09-20T11:13:05.717Z,17.19
2017-09-20T11:14:20.170Z,17.22
2017-09-20T11:15:35.049Z,17.34
2017-09-20T11:16:49.951Z,17.42
2017-09-20T11:18:04.660Z,17.47
2017-09-20T11:19:18.378Z,17.5
2017-09-20T11:20:32.630Z,17.42
2017-09-20T11:21:47.563Z,17.56
2017-09-20T11:23:01.240Z,17.54
2017-09-20T11:24:16.226Z,17.66
2017-09-20T11:25:30.259Z,17.87
2017-09-20T11:26:44.737Z,17.91
2017-09-20T11:27:58.954Z,17.94
2017-09-20T11:29:13.145Z,17.86
2017-09-20T11:30:27.202Z,17.95
2017-09-20T11:31:40.986Z,18.11
2017-09-20T11:32:55.190Z,18.18
2017-09-20T11:34:09.048Z,18.23
2017-09-20T11:35:22.810Z,18.23
2017-09-20T11:36:36.776Z,18.08
2017-09-20T11:37:50.504Z,18.26
2017-09-20T11:39:04.128Z,18.16
2017-09-20T11:40:24.414Z,18.15
2017-09-20T11:41:38.902Z,18.09
2017-09-20T11:42:52.612Z,17.98
2017-09-20T11:44:06.612Z,17.95
2017-09-20T11:45:20.538Z,18.12
2017-09-20T11:46:35.376Z,18.26
2017-09-20T11:47:48.990Z,18.37
2017-09-20T11:49:02.641Z,18.46
2017-09-20T11:50:16.396Z,18.61
2017-09-20T11:51:29.946Z,18.57
2017-09-20T11:52:44.009Z,18.64
2017-09-20T11:53:57.559Z,18.6
2017-09-20T11:55:11.765Z,18.76
2017-09-20T11:56:25.549Z,18.7
2017-09-20T11:57:39.149Z,18.74
2017-09-20T11:58:53.421Z,18.88
2017-09-20T12:00:07.507Z,19.12
2017-09-20T12:01:21.861Z,19.15
2017-09-20T12:02:35.580Z,19.09
2017-09-20T12:03:50.464Z,19.09
2017-09-20T12:05:06.115Z,19
2017-09-20T12:06:19.860Z,18.98
2017-09-20T12:07:33.504Z,19.15
2017-09-20T12:08:47.357Z,19.11
2017-09-20T12:10:01.777Z,19
2017-09-20T12:11:16.450Z,18.79
2017-09-20T12:12:30.065Z,18.86
2017-09-20T12:13:43.661Z,18.68
2017-09-20T12:14:57.713Z,18.64
2017-09-20T12:16:11.665Z,18.64
2017-09-20T12:17:25.852Z,18.55
2017-09-20T12:18:39.377Z,18.6
2017-09-20T12:19:52.965Z,18.46
2017-09-20T12:21:06.562Z,18.42
2017-09-20T12:22:20.352Z,18.49
2017-09-20T12:23:36.048Z,18.48
2017-09-20T12:24:50.290Z,18.48
2017-09-20T12:26:03.841Z,18.57
2017-09-20T12:27:17.664Z,18.55
2017-09-20T12:28:31.274Z,18.58
2017-09-20T12:29:46.121Z,18.51
2017-09-20T12:31:46.701Z,18.28
2017-09-20T12:33:00.530Z,18.24
2017-09-20T12:34:14.431Z,18.19
2017-09-20T12:35:29.279Z,18.08
2017-09-20T12:36:42.835Z,17.93
2017-09-20T12:37:56.501Z,18
2017-09-20T12:39:10.173Z,18.08
2017-09-20T12:40:24.230Z,17.93
2017-09-20T12:41:38.184Z,17.86
2017-09-20T12:42:51.872Z,17.72
2017-09-20T12:44:05.530Z,17.93
2017-09-20T12:45:19.382Z,17.98
2017-09-20T12:46:33.119Z,17.95
2017-09-20T12:47:47.055Z,18.03
2017-09-20T12:49:01.693Z,18.24
2017-09-20T12:50:15.316Z,18.24
2017-09-20T12:51:30.330Z,18.49
2017-09-20T12:52:44.076Z,18.67
2017-09-20T12:53:58.411Z,18.71
2017-09-20T12:55:12.410Z,18.73
2017-09-20T12:56:26.019Z,18.78
2017-09-20T12:57:39.656Z,18.79
2017-09-20T12:58:53.183Z,18.76
2017-09-20T13:00:07.421Z,18.82
2017-09-20T13:01:21.335Z,19.05
2017-09-20T13:02:35.281Z,18.71
2017-09-20T13:03:49.068Z,18.48
2017-09-20T13:05:03.360Z,18.21
2017-09-20T13:06:17.795Z,18
2017-09-20T13:07:31.374Z,18.08
2017-09-20T13:08:45.803Z,18.19
2017-09-20T13:10:00.508Z,18.23
2017-09-20T13:11:14.811Z,18.23
2017-09-20T13:12:29.079Z,18.16
2017-09-20T13:13:46.208Z,18.26
2017-09-20T13:14:59.850Z,18.23
2017-09-20T13:16:14.364Z,18.21
2017-09-20T13:17:28.645Z,18.15
2017-09-20T13:18:43.330Z,18.02
2017-09-20T13:19:57.502Z,18.27
2017-09-20T13:21:12.763Z,18.18
2017-09-20T13:22:26.671Z,18.19
2017-09-20T13:23:40.266Z,18.09
2017-09-20T13:24:54.451Z,18.24
2017-09-20T13:26:08.361Z,18.12
2017-09-20T13:27:22.691Z,18.21
2017-09-20T13:28:36.507Z,18.23
2017-09-20T13:29:50.187Z,18.26
2017-09-20T13:31:04.875Z,18.31
2017-09-20T13:32:18.872Z,18.42
2017-09-20T13:33:32.762Z,18.42
2017-09-20T13:34:46.359Z,18.43
2017-09-20T13:36:00.931Z,18.43
2017-09-20T13:37:15.485Z,18.37
2017-09-20T13:38:29.357Z,18.36
2017-09-20T13:39:43.188Z,18.34
2017-09-20T13:40:58.633Z,18.43
2017-09-20T13:42:12.921Z,18.42
2017-09-20T13:43:26.926Z,18.41
2017-09-20T13:44:40.531Z,18.45
2017-09-20T13:45:54.782Z,18.45
2017-09-20T13:47:08.517Z,18.52
2017-09-20T13:48:22.336Z,18.53
2017-09-20T13:49:36.830Z,18.53
2017-09-20T13:50:51.115Z,18.46
2017-09-20T13:52:04.891Z,18.6
2017-09-20T13:53:19.329Z,18.67
2017-09-20T13:54:33.137Z,18.58
2017-09-20T13:55:47.209Z,18.76
2017-09-20T13:57:01.015Z,18.73
2017-09-20T13:58:22.129Z,18.73
2017-09-20T13:59:36.255Z,18.74
2017-09-20T14:00:49.874Z,18.61
2017-09-20T14:02:04.101Z,18.64
2017-09-20T14:03:49.697Z,18.71
2017-09-20T14:05:03.326Z,18.76
2017-09-20T14:06:17.224Z,18.81
2017-09-20T14:07:31.639Z,18.92
2017-09-20T14:08:45.908Z,18.85
2017-09-20T14:09:59.891Z,18.68
2017-09-20T14:11:14.518Z,18.68
2017-09-20T14:12:28.307Z,18.64
2017-09-20T14:13:42.430Z,18.73
2017-09-20T14:14:56.046Z,18.71
2017-09-20T14:16:09.972Z,18.67
2017-09-20T14:17:23.565Z,18.7
2017-09-20T14:18:37.532Z,18.67
2017-09-20T14:19:51.874Z,18.76
2017-09-20T14:21:05.687Z,18.78
2017-09-20T14:22:19.295Z,18.85
2017-09-20T14:23:32.945Z,18.74
2017-09-20T14:24:46.942Z,18.66
2017-09-20T14:26:00.986Z,18.48
2017-09-20T14:27:14.591Z,18.26
2017-09-20T14:28:28.114Z,18.09
2017-09-20T14:29:42.248Z,17.97
2017-09-20T14:30:57.051Z,17.87
2017-09-20T14:32:10.893Z,17.88
2017-09-20T14:33:24.549Z,17.82
2017-09-20T14:34:38.612Z,17.65
2017-09-20T14:35:53.064Z,17.57
2017-09-20T14:37:07.148Z,17.54
2017-09-20T14:38:22.380Z,17.44
2017-09-20T14:39:36.304Z,17.39
2017-09-20T14:40:50.617Z,17.44
2017-09-20T14:42:04.749Z,17.47
2017-09-20T14:43:19.236Z,17.46
2017-09-20T14:44:33.633Z,17.54
2017-09-20T14:45:47.451Z,17.65
2017-09-20T14:47:01.695Z,17.54
2017-09-20T14:48:17.032Z,17.69
2017-09-20T14:49:30.814Z,17.65
2017-09-20T14:50:45.105Z,17.68
2017-09-20T14:51:58.925Z,17.79
2017-09-20T14:53:12.600Z,17.76
2017-09-20T14:54:46.773Z,17.87
2017-09-20T14:56:00.377Z,17.87
2017-09-20T14:57:14.990Z,17.88
2017-09-20T14:58:28.503Z,17.87
2017-09-20T14:59:42.589Z,17.76
2017-09-20T15:00:56.217Z,17.66
2017-09-20T15:02:10.355Z,17.56
2017-09-20T15:03:24.031Z,17.42
2017-09-20T15:04:38.117Z,17.46
2017-09-20T15:05:51.814Z,17.39
2017-09-20T15:07:05.410Z,17.42
2017-09-20T15:08:19.045Z,17.63
2017-09-20T15:09:33.291Z,17.66
2017-09-20T15:10:46.902Z,17.68
2017-09-20T15:12:00.557Z,17.52
2017-09-20T15:13:14.502Z,17.47
2017-09-20T15:14:28.692Z,17.28
2017-09-20T15:15:43.101Z,17.32
2017-09-20T15:16:57.730Z,17.3
2017-09-20T15:18:11.420Z,17.23
2017-09-20T15:19:25.027Z,17.16
2017-09-20T15:20:39.083Z,17.16
2017-09-20T15:21:53.141Z,17.14
2017-09-20T15:23:06.699Z,17.1
2017-09-20T15:24:20.588Z,17.2
2017-09-20T15:25:34.355Z,17.32
2017-09-20T15:26:47.932Z,17.28
2017-09-20T15:28:02.171Z,17.32
2017-09-20T15:29:15.697Z,17.31
2017-09-20T15:30:29.559Z,17.37
2017-09-20T15:31:43.901Z,17.27
2017-09-20T15:32:57.688Z,17.28
2017-09-20T15:34:11.793Z,17.32
2017-09-20T15:35:25.763Z,17.41
2017-09-20T15:36:39.333Z,17.3
2017-09-20T15:37:52.934Z,17.28
2017-09-20T15:39:06.607Z,17.24
2017-09-20T15:40:21.069Z,17.32
2017-09-20T15:41:34.592Z,17.3
2017-09-20T15:42:48.162Z,17.16
2017-09-20T15:44:02.283Z,17.1
2017-09-20T15:45:16.314Z,17.04
2017-09-20T15:47:05.398Z,16.95
2017-09-20T15:48:19.308Z,16.94
2017-09-20T15:49:33.324Z,16.91
2017-09-20T15:50:47.210Z,16.92
2017-09-20T15:52:01.092Z,16.89
2017-09-20T15:53:14.677Z,16.91
2017-09-20T15:54:28.576Z,17.04
2017-09-20T15:55:42.654Z,17.02
2017-09-20T15:56:56.324Z,17.02
2017-09-20T16:02:23.822Z,17.19
2017-09-20T16:03:38.543Z,17.12
2017-09-20T16:05:06.750Z,17.16
2017-09-20T16:06:24.244Z,17.02
2017-09-20T16:07:38.233Z,17.12